Time;durP1;ratioP1;P1;durP2;ratioP2;P2;SDS_P1;SDS_P2;PMS_P1;PMS_P2;Temp;Humidity;BMP_temperature;BMP_pressure;BME280_temperature;BME280_humidity;BME280_pressure;Samples;Min_cycle;Max_cycle;Signal;HPM_P1;HPM_P2
2024/02/19 00:01:29;;;;;;;0.75;0.70;;;;;;;;;;4910066;29;20027;-82
2024/02/19 00:04:14;;;;;;;2.20;0.65;;;;;;;;;;4904696;29;20059;-82
2024/02/19 00:07:00;;;;;;;0.95;0.77;;;;;;;;;;4895448;29;20032;-82
2024/02/19 00:09:46;;;;;;;0.73;0.73;;;;;;;;;;4896885;29;20119;-81
2024/02/19 00:12:31;;;;;;;0.95;0.70;;;;;;;;;;4910485;29;20115;-82
2024/02/19 00:15:17;;;;;;;0.70;0.70;;;;;;;;;;4911471;29;20023;-81
2024/02/19 00:18:02;;;;;;;0.70;0.70;;;;;;;;;;4922662;29;20055;-82
2024/02/19 00:20:47;;;;;;;1.13;0.68;;;;;;;;;;4906660;29;20031;-82
2024/02/19 00:23:35;;;;;;;1.63;0.90;;;;;;;;;;4889494;29;20032;-82
2024/02/19 00:26:20;;;;;;;0.60;0.60;;;;;;;;;;4883820;29;20031;-83
2024/02/19 00:29:06;;;;;;;0.95;0.63;;;;;;;;;;4913201;29;20027;-82
2024/02/19 00:31:52;;;;;;;1.20;0.60;;;;;;;;;;4908848;29;20043;-82
2024/02/19 00:34:41;;;;;;;0.75;0.70;;;;;;;;;;4911504;29;20028;-82
2024/02/19 00:37:27;;;;;;;1.77;0.88;;;;;;;;;;4905210;29;20110;-82
2024/02/19 00:40:12;;;;;;;0.82;0.60;;;;;;;;;;4911637;29;20031;-82
2024/02/19 00:42:57;;;;;;;0.65;0.60;;;;;;;;;;4905793;29;20090;-82
2024/02/19 00:45:42;;;;;;;0.90;0.90;;;;;;;;;;4897999;29;20402;-83
2024/02/19 00:48:28;;;;;;;0.50;0.50;;;;;;;;;;4908035;29;20028;-81
2024/02/19 00:51:13;;;;;;;3.10;0.65;;;;;;;;;;4912948;29;20042;-82
2024/02/19 00:53:59;;;;;;;0.77;0.77;;;;;;;;;;4908599;29;20039;-81
2024/02/19 00:56:44;;;;;;;0.60;0.60;;;;;;;;;;4912471;29;20039;-82
2024/02/19 00:59:29;;;;;;;0.50;0.50;;;;;;;;;;4912309;29;20069;-81
2024/02/19 01:02:18;;;;;;;0.60;0.60;;;;;;;;;;4908435;29;20039;-81
2024/02/19 01:05:04;;;;;;;1.27;0.88;;;;;;;;;;4912218;29;20395;-81
2024/02/19 01:07:50;;;;;;;0.70;0.50;;;;;;;;;;4913250;29;20035;-81
2024/02/19 01:10:35;;;;;;;0.88;0.60;;;;;;;;;;4908821;29;20078;-81
2024/02/19 01:13:21;;;;;;;0.60;0.60;;;;;;;;;;4908723;29;20099;-82
2024/02/19 01:16:07;;;;;;;0.60;0.60;;;;;;;;;;4912667;29;20035;-81
2024/02/19 01:18:53;;;;;;;0.57;0.57;;;;;;;;;;4909692;29;20020;-82
2024/02/19 01:21:38;;;;;;;0.50;0.50;;;;;;;;;;4907732;29;20035;-81
2024/02/19 01:24:24;;;;;;;0.50;0.50;;;;;;;;;;4903098;29;20048;-81
2024/02/19 01:27:10;;;;;;;1.13;0.80;;;;;;;;;;4906648;29;20063;-82
2024/02/19 01:29:55;;;;;;;1.33;0.75;;;;;;;;;;4910051;29;20111;-82
2024/02/19 01:32:41;;;;;;;0.85;0.68;;;;;;;;;;4909913;29;20091;-82
2024/02/19 01:35:26;;;;;;;1.10;0.60;;;;;;;;;;4898359;29;20079;-82
2024/02/19 01:38:11;;;;;;;0.95;0.70;;;;;;;;;;4889444;29;20028;-82
2024/02/19 01:40:57;;;;;;;2.45;0.90;;;;;;;;;;4910355;29;20111;-82
2024/02/19 01:43:43;;;;;;;0.52;0.52;;;;;;;;;;4925603;29;20024;-82
2024/02/19 01:46:29;;;;;;;0.50;0.50;;;;;;;;;;4899209;29;20032;-82
2024/02/19 01:49:15;;;;;;;0.52;0.52;;;;;;;;;;4914277;29;20023;-81
2024/02/19 01:52:00;;;;;;;1.02;0.70;;;;;;;;;;4913035;29;20090;-83
2024/02/19 01:54:46;;;;;;;0.93;0.70;;;;;;;;;;4899299;29;20032;-81
2024/02/19 01:57:31;;;;;;;1.75;0.60;;;;;;;;;;4906328;29;20036;-82
2024/02/19 02:00:17;;;;;;;1.77;0.73;;;;;;;;;;4904604;29;20024;-81
2024/02/19 02:03:03;;;;;;;0.70;0.70;;;;;;;;;;4916722;29;20031;-81
2024/02/19 02:05:48;;;;;;;0.65;0.65;;;;;;;;;;4913937;29;20036;-81
2024/02/19 02:08:39;;;;;;;1.25;0.73;;;;;;;;;;4912660;29;20039;-82
2024/02/19 02:11:24;;;;;;;3.40;0.52;;;;;;;;;;4899060;29;20039;-81
2024/02/19 02:14:09;;;;;;;1.40;0.60;;;;;;;;;;4895645;29;20110;-81
2024/02/19 02:16:54;;;;;;;1.00;0.50;;;;;;;;;;4905370;29;20138;-81
2024/02/19 02:19:41;;;;;;;2.42;0.75;;;;;;;;;;4912732;29;20087;-82
2024/02/19 02:22:26;;;;;;;0.77;0.55;;;;;;;;;;4900814;29;20032;-81
2024/02/19 02:25:11;;;;;;;0.60;0.60;;;;;;;;;;4912300;29;20031;-81
2024/02/19 02:27:57;;;;;;;0.98;0.60;;;;;;;;;;4911955;29;20028;-81
2024/02/19 02:30:42;;;;;;;1.30;0.70;;;;;;;;;;4914357;29;20028;-81
2024/02/19 02:33:28;;;;;;;1.05;0.50;;;;;;;;;;4909559;29;20032;-81
2024/02/19 02:36:13;;;;;;;2.97;0.80;;;;;;;;;;4915900;29;20028;-81
2024/02/19 02:39:00;;;;;;;0.93;0.57;;;;;;;;;;4919959;29;20058;-81
2024/02/19 02:41:45;;;;;;;3.30;0.60;;;;;;;;;;4913764;29;20032;-76
2024/02/19 02:44:30;;;;;;;0.40;0.40;;;;;;;;;;4937111;29;20095;-81
2024/02/19 02:47:16;;;;;;;0.60;0.60;;;;;;;;;;4924612;29;20130;-81
2024/02/19 02:50:01;;;;;;;0.50;0.50;;;;;;;;;;4928766;29;20003;-82
2024/02/19 02:52:47;;;;;;;1.20;0.60;;;;;;;;;;4932147;29;20014;-82
2024/02/19 02:55:33;;;;;;;1.17;0.85;;;;;;;;;;4935909;29;20040;-82
2024/02/19 02:58:18;;;;;;;3.22;0.90;;;;;;;;;;4901374;29;20123;-81
2024/02/19 03:01:07;;;;;;;1.17;0.70;;;;;;;;;;4916221;29;20019;-81
2024/02/19 03:03:52;;;;;;;0.52;0.50;;;;;;;;;;4916101;29;20019;-81
2024/02/19 03:06:38;;;;;;;1.13;0.73;;;;;;;;;;4917387;29;20051;-82
2024/02/19 03:09:23;;;;;;;0.70;0.60;;;;;;;;;;4908298;29;20026;-82
2024/02/19 03:12:08;;;;;;;1.20;1.10;;;;;;;;;;4915588;29;20028;-82
2024/02/19 03:14:54;;;;;;;2.00;0.88;;;;;;;;;;4922628;29;20051;-80
2024/02/19 03:17:39;;;;;;;1.05;0.95;;;;;;;;;;4941226;29;20023;-80
2024/02/19 03:20:25;;;;;;;2.30;1.15;;;;;;;;;;4928609;29;20059;-81
2024/02/19 03:23:10;;;;;;;1.23;1.13;;;;;;;;;;4907510;29;20020;-81
2024/02/19 03:25:55;;;;;;;1.55;0.98;;;;;;;;;;4923341;29;20043;-80
2024/02/19 03:28:42;;;;;;;1.10;1.00;;;;;;;;;;4923037;29;20032;-81
2024/02/19 03:31:28;;;;;;;1.60;1.10;;;;;;;;;;4930045;29;20387;-80
2024/02/19 03:34:13;;;;;;;1.27;0.95;;;;;;;;;;4913052;29;20096;-80
2024/02/19 03:36:59;;;;;;;2.63;1.13;;;;;;;;;;4917357;29;20036;-80
2024/02/19 03:39:44;;;;;;;1.85;0.90;;;;;;;;;;4928186;29;20098;-81
2024/02/19 03:42:30;;;;;;;1.70;1.05;;;;;;;;;;4924585;29;20036;-80
2024/02/19 03:45:18;;;;;;;1.90;1.30;;;;;;;;;;4923309;29;20024;-80
2024/02/19 03:48:05;;;;;;;1.00;1.00;;;;;;;;;;4928590;29;20051;-81
2024/02/19 03:50:50;;;;;;;4.70;1.92;;;;;;;;;;4910087;29;20026;-81
2024/02/19 03:53:36;;;;;;;3.63;1.48;;;;;;;;;;4922592;29;20059;-81
2024/02/19 03:56:21;;;;;;;3.28;1.00;;;;;;;;;;4930035;29;20035;-80
2024/02/19 03:59:07;;;;;;;2.25;0.90;;;;;;;;;;4923481;29;20020;-81
2024/02/19 04:01:52;;;;;;;2.28;1.35;;;;;;;;;;4917895;29;20016;-81
2024/02/19 04:04:37;;;;;;;1.33;1.00;;;;;;;;;;4911598;29;20034;-81
2024/02/19 04:07:24;;;;;;;3.10;1.95;;;;;;;;;;4914421;29;20027;-81
2024/02/19 04:10:09;;;;;;;2.22;1.27;;;;;;;;;;4920200;29;20572;-81
2024/02/19 04:12:54;;;;;;;3.45;1.20;;;;;;;;;;4919755;29;20050;-81
2024/02/19 04:15:40;;;;;;;1.40;1.05;;;;;;;;;;4920444;29;20035;-81
2024/02/19 04:18:25;;;;;;;2.80;1.40;;;;;;;;;;4925644;29;20114;-81
2024/02/19 04:21:10;;;;;;;3.00;1.10;;;;;;;;;;4912329;29;20034;-80
2024/02/19 04:23:56;;;;;;;1.00;0.90;;;;;;;;;;4914633;29;20024;-80
2024/02/19 04:26:41;;;;;;;2.80;1.40;;;;;;;;;;4924038;29;20035;-80
2024/02/19 04:29:26;;;;;;;1.40;1.10;;;;;;;;;;4917821;29;20035;-81
2024/02/19 04:32:12;;;;;;;2.42;0.98;;;;;;;;;;4917445;29;20035;-81
2024/02/19 04:34:57;;;;;;;4.45;2.42;;;;;;;;;;4923826;29;20043;-81
2024/02/19 04:37:43;;;;;;;4.78;1.90;;;;;;;;;;4914057;29;20026;-81
2024/02/19 04:40:28;;;;;;;2.83;1.80;;;;;;;;;;4917348;29;20032;-81
2024/02/19 04:43:13;;;;;;;2.70;1.38;;;;;;;;;;4923758;29;20031;-81
2024/02/19 04:45:59;;;;;;;2.85;1.05;;;;;;;;;;4921591;29;20036;-84
2024/02/19 04:48:44;;;;;;;2.67;1.30;;;;;;;;;;4917622;29;20020;-84
2024/02/19 04:51:30;;;;;;;1.75;1.10;;;;;;;;;;4897228;29;20032;-81
2024/02/19 04:54:15;;;;;;;3.17;1.95;;;;;;;;;;4924613;29;20517;-82
2024/02/19 04:57:00;;;;;;;4.03;1.33;;;;;;;;;;4926189;29;20043;-81
2024/02/19 04:59:45;;;;;;;4.03;1.80;;;;;;;;;;4918354;29;20046;-81
2024/02/19 05:02:31;;;;;;;2.67;1.50;;;;;;;;;;4917791;29;20487;-82
2024/02/19 05:05:16;;;;;;;2.38;1.20;;;;;;;;;;4923439;29;20111;-81
2024/02/19 05:08:03;;;;;;;2.60;1.70;;;;;;;;;;4899967;29;20074;-84
2024/02/19 05:10:48;;;;;;;5.90;1.60;;;;;;;;;;4923263;29;20035;-82
2024/02/19 05:13:36;;;;;;;5.30;1.90;;;;;;;;;;4915761;29;20048;-81
2024/02/19 05:16:22;;;;;;;5.45;2.08;;;;;;;;;;4909191;29;20026;-81
2024/02/19 05:19:07;;;;;;;3.38;1.63;;;;;;;;;;4912675;29;20036;-81
2024/02/19 05:21:53;;;;;;;5.22;2.20;;;;;;;;;;4923981;29;20027;-81
2024/02/19 05:24:41;;;;;;;5.85;2.17;;;;;;;;;;4911413;29;20032;-80
2024/02/19 05:27:27;;;;;;;5.57;1.98;;;;;;;;;;4924008;29;20026;-80
2024/02/19 05:30:12;;;;;;;6.05;1.65;;;;;;;;;;4907531;29;20024;-83
2024/02/19 05:32:57;;;;;;;9.30;2.63;;;;;;;;;;4925782;29;20099;-83
2024/02/19 05:35:43;;;;;;;5.60;2.08;;;;;;;;;;4901049;29;20051;-82
2024/02/19 05:38:28;;;;;;;6.18;2.75;;;;;;;;;;4923909;29;20032;-80
2024/02/19 05:41:14;;;;;;;8.20;3.17;;;;;;;;;;4916356;29;20020;-83
2024/02/19 05:43:59;;;;;;;6.43;2.78;;;;;;;;;;4916810;29;20027;-82
2024/02/19 05:46:44;;;;;;;6.13;2.78;;;;;;;;;;4924858;29;20040;-81
2024/02/19 05:49:29;;;;;;;7.43;3.10;;;;;;;;;;4922952;29;20074;-82
2024/02/19 05:52:15;;;;;;;7.32;2.50;;;;;;;;;;4921165;29;20035;-82
2024/02/19 05:55:03;;;;;;;6.13;2.92;;;;;;;;;;4925133;29;20374;-81
2024/02/19 05:57:48;;;;;;;6.82;3.08;;;;;;;;;;4923126;29;20395;-79
2024/02/19 06:00:33;;;;;;;5.95;2.78;;;;;;;;;;4924315;29;20031;-80
2024/02/19 06:03:19;;;;;;;7.90;3.40;;;;;;;;;;4921500;29;20035;-80
2024/02/19 06:06:04;;;;;;;5.28;3.00;;;;;;;;;;4925817;29;20138;-81
2024/02/19 06:08:49;;;;;;;8.23;3.20;;;;;;;;;;4930461;29;20123;-80
2024/02/19 06:11:40;;;;;;;6.75;3.45;;;;;;;;;;4926151;29;20895;-79
2024/02/19 06:14:26;;;;;;;8.13;2.70;;;;;;;;;;4926772;29;20047;-79
2024/02/19 06:17:11;;;;;;;5.65;2.78;;;;;;;;;;4914874;29;20034;-78
2024/02/19 06:19:56;;;;;;;6.30;3.33;;;;;;;;;;4921700;29;20036;-79
2024/02/19 06:22:42;;;;;;;7.97;3.55;;;;;;;;;;4912971;29;20035;-79
2024/02/19 06:25:27;;;;;;;10.85;2.88;;;;;;;;;;4921981;29;20028;-79
2024/02/19 06:28:13;;;;;;;4.35;2.20;;;;;;;;;;4921779;29;20109;-78
2024/02/19 06:30:58;;;;;;;5.72;2.63;;;;;;;;;;4917848;29;20032;-80
2024/02/19 06:33:43;;;;;;;7.53;2.65;;;;;;;;;;4914551;29;20036;-80
2024/02/19 06:36:29;;;;;;;5.00;2.53;;;;;;;;;;4924546;29;20028;-80
2024/02/19 06:39:14;;;;;;;7.70;2.90;;;;;;;;;;4906066;29;20596;-80
2024/02/19 06:41:59;;;;;;;3.97;2.28;;;;;;;;;;4924229;29;20039;-79
2024/02/19 06:44:44;;;;;;;8.45;2.92;;;;;;;;;;4909088;29;20868;-82
2024/02/19 06:47:29;;;;;;;4.47;2.60;;;;;;;;;;4912870;29;20462;-81
2024/02/19 06:50:15;;;;;;;7.57;3.00;;;;;;;;;;4922108;29;20040;-82
2024/02/19 06:53:00;;;;;;;11.63;3.35;;;;;;;;;;4924164;29;20038;-82
2024/02/19 06:55:46;;;;;;;5.32;2.40;;;;;;;;;;4922953;29;20040;-82
2024/02/19 06:58:31;;;;;;;5.25;2.33;;;;;;;;;;4918302;29;20036;-85
2024/02/19 07:01:16;;;;;;;8.32;2.90;;;;;;;;;;4919714;29;20055;-83
2024/02/19 07:04:01;;;;;;;8.30;2.45;;;;;;;;;;4913499;29;20036;-84
2024/02/19 07:06:47;;;;;;;8.23;2.97;;;;;;;;;;4919587;29;20442;-84
2024/02/19 07:09:32;;;;;;;7.13;2.45;;;;;;;;;;4916755;29;20059;-79
2024/02/19 07:12:17;;;;;;;7.10;2.50;;;;;;;;;;4902806;29;20162;-82
2024/02/19 07:15:03;;;;;;;4.28;2.28;;;;;;;;;;4890616;29;20043;-83
2024/02/19 07:17:50;;;;;;;5.32;2.40;;;;;;;;;;4897052;29;20020;-82
2024/02/19 07:20:35;;;;;;;4.82;2.30;;;;;;;;;;4896708;29;20376;-81
2024/02/19 07:23:20;;;;;;;7.30;2.80;;;;;;;;;;4895088;29;20055;-84
2024/02/19 07:26:05;;;;;;;5.72;2.63;;;;;;;;;;4896310;29;20032;-85
2024/02/19 07:28:51;;;;;;;7.10;3.13;;;;;;;;;;4908063;29;20028;-82
2024/02/19 07:31:37;;;;;;;4.28;2.08;;;;;;;;;;4908294;29;20032;-82
2024/02/19 07:34:22;;;;;;;4.93;2.60;;;;;;;;;;4893292;29;20671;-84
2024/02/19 07:37:07;;;;;;;3.95;2.17;;;;;;;;;;4893304;29;20128;-81
2024/02/19 07:39:53;;;;;;;6.32;2.53;;;;;;;;;;4885031;29;20132;-85
2024/02/19 07:42:38;;;;;;;7.28;2.78;;;;;;;;;;4907839;29;20032;-86
2024/02/19 07:45:57;;;;;;;6.00;2.10;;;;;;;;;;4896431;29;20043;-85
2024/02/19 07:48:43;;;;;;;;;;;;;;;;;;4896653;29;20099;-81
2024/02/19 07:51:28;;;;;;;3.78;1.88;;;;;;;;;;4896378;29;19919;-83
2024/02/19 07:54:13;;;;;;;4.18;1.98;;;;;;;;;;4896658;29;20036;-83
2024/02/19 07:56:58;;;;;;;5.00;1.88;;;;;;;;;;4897843;29;20038;-85
2024/02/19 07:59:44;;;;;;;3.70;1.02;;;;;;;;;;4898976;29;20119;-85
2024/02/19 08:02:29;;;;;;;4.68;1.27;;;;;;;;;;4897518;29;20039;-86
2024/02/19 08:05:16;;;;;;;6.25;2.60;;;;;;;;;;4886351;29;20024;-86
2024/02/19 08:08:01;;;;;;;3.10;1.48;;;;;;;;;;4896254;29;20016;-86
2024/02/19 08:10:47;;;;;;;2.38;1.45;;;;;;;;;;4894824;29;20101;-83
2024/02/19 08:13:32;;;;;;;2.38;1.00;;;;;;;;;;4893540;29;20127;-85
2024/02/19 08:16:18;;;;;;;2.08;1.10;;;;;;;;;;4918874;29;20034;-84
2024/02/19 08:19:03;;;;;;;3.55;1.15;;;;;;;;;;4893510;29;20028;-84
2024/02/19 08:21:49;;;;;;;5.53;1.20;;;;;;;;;;4899703;29;20024;-85
2024/02/19 08:24:36;;;;;;;6.72;1.20;;;;;;;;;;4896889;29;20118;-85
2024/02/19 08:27:21;;;;;;;3.65;1.58;;;;;;;;;;4899882;29;20028;-85
2024/02/19 08:30:06;;;;;;;2.85;1.20;;;;;;;;;;4894151;29;20024;-84
2024/02/19 08:32:52;;;;;;;3.83;1.73;;;;;;;;;;4894273;29;20036;-83
2024/02/19 08:35:37;;;;;;;2.53;1.58;;;;;;;;;;4909034;29;20028;-83
2024/02/19 08:38:23;;;;;;;2.92;1.20;;;;;;;;;;4911458;29;20032;-83
2024/02/19 08:41:08;;;;;;;3.65;1.42;;;;;;;;;;4898007;29;20024;-83
2024/02/19 08:43:53;;;;;;;3.17;1.40;;;;;;;;;;4898295;29;20039;-83
2024/02/19 08:46:38;;;;;;;3.97;2.08;;;;;;;;;;4910408;29;20040;-86
2024/02/19 08:49:25;;;;;;;4.43;1.70;;;;;;;;;;4898485;29;20095;-82
2024/02/19 08:52:12;;;;;;;5.75;1.58;;;;;;;;;;4895990;29;20611;-84
2024/02/19 08:54:57;;;;;;;3.42;1.40;;;;;;;;;;4895861;29;20084;-84
2024/02/19 08:57:43;;;;;;;3.75;1.25;;;;;;;;;;4896519;29;20036;-85
2024/02/19 09:00:29;;;;;;;6.40;1.48;;;;;;;;;;4894309;29;20063;-84
2024/02/19 09:03:14;;;;;;;3.53;1.45;;;;;;;;;;4895538;29;20119;-85
2024/02/19 09:05:59;;;;;;;2.28;1.15;;;;;;;;;;4894882;29;20039;-83
2024/02/19 09:08:44;;;;;;;3.58;1.13;;;;;;;;;;4908142;29;20059;-84
2024/02/19 09:11:30;;;;;;;7.28;2.08;;;;;;;;;;4891616;29;20123;-82
2024/02/19 09:14:15;;;;;;;4.25;1.08;;;;;;;;;;4894625;29;20168;-87
2024/02/19 09:17:01;;;;;;;5.93;1.25;;;;;;;;;;4898643;29;20032;-84
2024/02/19 09:19:46;;;;;;;2.67;1.30;;;;;;;;;;4904811;29;20496;-84
2024/02/19 09:22:31;;;;;;;3.42;1.15;;;;;;;;;;4899835;29;20111;-84
2024/02/19 09:25:16;;;;;;;2.45;1.00;;;;;;;;;;4887096;29;20541;-83
2024/02/19 09:28:06;;;;;;;3.75;1.08;;;;;;;;;;4912566;29;20027;-83
2024/02/19 09:31:04;;;;;;;4.53;1.05;;;;;;;;;;4906735;29;20038;-86
2024/02/19 09:33:53;;;;;;;3.38;1.27;;;;;;;;;;4898958;29;20123;-83
2024/02/19 09:36:38;;;;;;;3.53;1.53;;;;;;;;;;4895758;29;20107;-83
2024/02/19 09:39:23;;;;;;;4.15;1.30;;;;;;;;;;4890738;29;20028;-83
2024/02/19 09:42:09;;;;;;;4.07;1.15;;;;;;;;;;4904260;29;20031;-84
2024/02/19 09:44:55;;;;;;;2.90;1.45;;;;;;;;;;4913633;29;20044;-83
2024/02/19 09:47:43;;;;;;;3.97;1.00;;;;;;;;;;4897887;29;20028;-83
2024/02/19 09:50:31;;;;;;;5.88;1.25;;;;;;;;;;4899092;29;20035;-83
2024/02/19 09:53:27;;;;;;;3.72;1.60;;;;;;;;;;4901965;29;20616;-83
2024/02/19 09:56:17;;;;;;;4.15;1.58;;;;;;;;;;4899601;29;20036;-80
2024/02/19 09:59:04;;;;;;;2.50;1.50;;;;;;;;;;4907447;29;20032;-82
2024/02/19 10:01:50;;;;;;;3.65;1.20;;;;;;;;;;4911557;29;20036;-82
2024/02/19 10:04:35;;;;;;;5.43;1.45;;;;;;;;;;4896521;29;20105;-82
2024/02/19 10:07:21;;;;;;;3.75;1.00;;;;;;;;;;4906120;29;20039;-83
2024/02/19 10:10:08;;;;;;;3.70;1.55;;;;;;;;;;4886415;29;20066;-83
2024/02/19 10:12:53;;;;;;;4.18;1.45;;;;;;;;;;4899196;29;20036;-83
2024/02/19 10:15:39;;;;;;;7.47;1.83;;;;;;;;;;4891743;29;20028;-85
2024/02/19 10:18:24;;;;;;;3.42;1.85;;;;;;;;;;4903168;29;20039;-84
2024/02/19 10:21:09;;;;;;;4.05;1.15;;;;;;;;;;4896421;29;20033;-84
2024/02/19 10:23:55;;;;;;;3.20;1.55;;;;;;;;;;4896327;29;20039;-84
2024/02/19 10:26:40;;;;;;;4.53;1.40;;;;;;;;;;4901391;29;20050;-84
2024/02/19 10:29:26;;;;;;;5.65;1.85;;;;;;;;;;4901090;29;20143;-80
2024/02/19 10:32:12;;;;;;;2.92;1.20;;;;;;;;;;4899272;29;20036;-83
2024/02/19 10:34:57;;;;;;;3.65;1.30;;;;;;;;;;4895397;29;20035;-83
2024/02/19 10:37:45;;;;;;;4.22;1.58;;;;;;;;;;4896770;29;20027;-82
2024/02/19 10:40:31;;;;;;;2.13;1.53;;;;;;;;;;4898031;29;20035;-82
2024/02/19 10:43:17;;;;;;;9.20;1.45;;;;;;;;;;4898624;29;20051;-81
2024/02/19 10:46:04;;;;;;;6.13;1.92;;;;;;;;;;4896930;29;20024;-80
2024/02/19 10:48:51;;;;;;;6.38;1.60;;;;;;;;;;4898934;29;20028;-82
2024/02/19 10:51:39;;;;;;;5.85;1.60;;;;;;;;;;4898382;29;20176;-83
2024/02/19 10:54:26;;;;;;;6.43;1.67;;;;;;;;;;4897679;29;20135;-83
2024/02/19 10:57:17;;;;;;;4.45;1.42;;;;;;;;;;4908021;29;20032;-83
2024/02/19 11:00:06;;;;;;;5.32;1.73;;;;;;;;;;4917689;29;20029;-84
2024/02/19 11:03:06;;;;;;;5.90;1.40;;;;;;;;;;4920347;29;20040;-86
2024/02/19 11:05:50;;;;;;;5.13;1.52;;;;;;;;;;4934351;28;20047;-85
2024/02/19 11:08:36;;;;;;;3.15;1.50;;;;;;;;;;4936723;28;20047;-85
2024/02/19 11:11:22;;;;;;;3.17;1.13;;;;;;;;;;4908672;29;20027;-85
2024/02/19 11:14:11;;;;;;;4.60;1.70;;;;;;;;;;4898897;29;20130;-84
2024/02/19 11:16:59;;;;;;;5.68;1.77;;;;;;;;;;4896428;29;20024;-83
2024/02/19 11:19:44;;;;;;;6.28;1.85;;;;;;;;;;4884862;29;20127;-83
2024/02/19 11:22:32;;;;;;;4.50;1.35;;;;;;;;;;4912022;29;20051;-85
2024/02/19 11:25:18;;;;;;;4.38;1.98;;;;;;;;;;4897304;29;20076;-84
2024/02/19 11:28:03;;;;;;;3.42;1.40;;;;;;;;;;4908726;29;20079;-83
2024/02/19 11:30:58;;;;;;;2.15;1.02;;;;;;;;;;4895925;29;20558;-83
2024/02/19 11:33:47;;;;;;;6.15;1.48;;;;;;;;;;4893941;29;20024;-83
2024/02/19 11:36:32;;;;;;;5.57;1.77;;;;;;;;;;4895225;29;20070;-80
2024/02/19 11:39:17;;;;;;;4.90;1.40;;;;;;;;;;4896426;29;20028;-81
2024/02/19 11:42:04;;;;;;;3.40;1.17;;;;;;;;;;4894513;29;20070;-81
2024/02/19 11:44:49;;;;;;;5.90;1.38;;;;;;;;;;4891703;29;20471;-82
2024/02/19 11:47:38;;;;;;;4.30;1.50;;;;;;;;;;4895703;29;20103;-82
2024/02/19 11:50:32;;;;;;;3.88;1.20;;;;;;;;;;4895858;29;20034;-85
2024/02/19 11:53:19;;;;;;;7.68;1.85;;;;;;;;;;4897481;29;20406;-83
2024/02/19 11:56:07;;;;;;;4.38;1.25;;;;;;;;;;4899436;29;20063;-83
2024/02/19 11:58:53;;;;;;;5.45;1.48;;;;;;;;;;4900970;29;20028;-81
2024/02/19 12:01:39;;;;;;;4.55;1.13;;;;;;;;;;4907258;29;20032;-80
2024/02/19 12:04:25;;;;;;;3.53;1.45;;;;;;;;;;4896908;29;20059;-83
2024/02/19 12:07:12;;;;;;;5.35;1.73;;;;;;;;;;4894088;29;20024;-82
2024/02/19 12:09:59;;;;;;;3.42;1.30;;;;;;;;;;4910549;29;20024;-81
2024/02/19 12:12:44;;;;;;;2.15;1.02;;;;;;;;;;4896294;29;20044;-82
2024/02/19 12:15:30;;;;;;;5.03;1.20;;;;;;;;;;4897548;29;20116;-83
2024/02/19 12:18:15;;;;;;;2.63;1.27;;;;;;;;;;4897119;29;20038;-81
2024/02/19 12:21:03;;;;;;;4.35;1.27;;;;;;;;;;4897532;29;20106;-82
2024/02/19 12:23:52;;;;;;;4.95;1.30;;;;;;;;;;4896754;29;20087;-81
2024/02/19 12:26:38;;;;;;;2.08;1.00;;;;;;;;;;4897198;29;20036;-82
2024/02/19 12:29:23;;;;;;;4.00;1.02;;;;;;;;;;4897682;29;20040;-82
2024/02/19 12:32:10;;;;;;;3.22;1.40;;;;;;;;;;4897390;29;20060;-82
2024/02/19 12:34:55;;;;;;;5.28;1.50;;;;;;;;;;4892757;29;20028;-83
2024/02/19 12:37:41;;;;;;;1.80;1.00;;;;;;;;;;4893833;29;20036;-84
2024/02/19 12:40:26;;;;;;;4.95;1.58;;;;;;;;;;4884452;29;20088;-82
2024/02/19 12:43:11;;;;;;;3.80;1.20;;;;;;;;;;4896793;29;20055;-81
2024/02/19 12:45:57;;;;;;;2.70;1.27;;;;;;;;;;4896543;29;20043;-81
2024/02/19 12:48:42;;;;;;;4.43;1.60;;;;;;;;;;4896144;29;20095;-81
2024/02/19 12:51:33;;;;;;;4.30;1.30;;;;;;;;;;4897828;29;20051;-84
2024/02/19 12:54:18;;;;;;;3.60;1.10;;;;;;;;;;4891705;29;20032;-81
2024/02/19 12:57:05;;;;;;;2.42;1.25;;;;;;;;;;4900956;29;20361;-82
2024/02/19 12:59:51;;;;;;;4.25;1.40;;;;;;;;;;4899217;29;20152;-78
2024/02/19 13:02:36;;;;;;;2.55;1.33;;;;;;;;;;4894464;29;20034;-81
2024/02/19 13:05:21;;;;;;;3.95;1.65;;;;;;;;;;4897541;29;20047;-80
2024/02/19 13:08:10;;;;;;;5.22;1.75;;;;;;;;;;4893649;29;20036;-81
2024/02/19 13:10:56;;;;;;;7.97;1.85;;;;;;;;;;4899249;29;20054;-82
2024/02/19 13:13:42;;;;;;;5.15;1.70;;;;;;;;;;4912704;29;20127;-81
2024/02/19 13:16:27;;;;;;;6.68;2.38;;;;;;;;;;4891527;29;20064;-81
2024/02/19 13:19:14;;;;;;;6.45;1.60;;;;;;;;;;4898873;29;20028;-82
2024/02/19 13:22:00;;;;;;;4.93;1.65;;;;;;;;;;4897445;29;20048;-80
2024/02/19 13:24:46;;;;;;;5.05;1.80;;;;;;;;;;4891846;29;20298;-79
2024/02/19 13:27:31;;;;;;;4.75;1.50;;;;;;;;;;4900126;29;20130;-83
2024/02/19 13:30:17;;;;;;;7.63;2.25;;;;;;;;;;4898038;29;20548;-80
2024/02/19 13:33:06;;;;;;;7.28;1.73;;;;;;;;;;4895747;29;20036;-81
2024/02/19 13:35:52;;;;;;;3.45;2.05;;;;;;;;;;4900024;29;20116;-82
2024/02/19 13:38:38;;;;;;;8.30;1.67;;;;;;;;;;4898507;29;20050;-82
2024/02/19 13:41:23;;;;;;;6.07;1.92;;;;;;;;;;4898873;29;20039;-81
2024/02/19 13:44:11;;;;;;;5.95;2.30;;;;;;;;;;4906726;29;20024;-81
2024/02/19 13:46:57;;;;;;;8.70;2.90;;;;;;;;;;4900487;29;20511;-82
2024/02/19 13:49:42;;;;;;;6.07;2.53;;;;;;;;;;4899506;29;20119;-80
2024/02/19 13:52:28;;;;;;;6.55;1.98;;;;;;;;;;4897248;29;20032;-80
2024/02/19 13:55:15;;;;;;;5.75;2.10;;;;;;;;;;4896018;29;20039;-80
2024/02/19 13:58:01;;;;;;;4.57;1.90;;;;;;;;;;4900498;29;20032;-81
2024/02/19 14:00:46;;;;;;;4.45;1.75;;;;;;;;;;4904640;29;20035;-80
2024/02/19 14:03:31;;;;;;;7.53;1.98;;;;;;;;;;4901936;29;20032;-81
2024/02/19 14:06:18;;;;;;;7.53;1.65;;;;;;;;;;4896251;29;20065;-81
2024/02/19 14:09:04;;;;;;;7.53;2.00;;;;;;;;;;4898822;29;20111;-81
2024/02/19 14:11:50;;;;;;;3.58;1.40;;;;;;;;;;4895901;29;20040;-81
2024/02/19 14:14:36;;;;;;;5.05;1.77;;;;;;;;;;4909825;29;20056;-80
2024/02/19 14:17:24;;;;;;;8.85;2.05;;;;;;;;;;4897451;29;20031;-80
2024/02/19 14:20:10;;;;;;;7.07;1.88;;;;;;;;;;4898378;29;20032;-85
2024/02/19 14:22:58;;;;;;;8.07;1.90;;;;;;;;;;4898284;29;20064;-84
2024/02/19 14:25:49;;;;;;;9.50;2.20;;;;;;;;;;4903893;29;20024;-84
2024/02/19 14:29:11;;;;;;;;;;;;;;;;;;;;;
2024/02/19 14:32:31;;;;;;;6.82;2.42;;;;;;;;;;4893853;29;20036;-85
2024/02/19 14:35:26;;;;;;;4.88;1.83;;;;;;;;;;4901631;29;20110;-82
2024/02/19 14:38:18;;;;;;;6.60;2.40;;;;;;;;;;4912658;29;20028;-81
2024/02/19 14:41:13;;;;;;;14.55;3.28;;;;;;;;;;4895900;29;20024;-82
2024/02/19 14:43:59;;;;;;;5.95;1.70;;;;;;;;;;4909046;29;20028;-81
2024/02/19 14:46:46;;;;;;;6.82;1.90;;;;;;;;;;4903646;29;20036;-80
2024/02/19 14:49:32;;;;;;;5.68;1.70;;;;;;;;;;4896125;29;20071;-81
2024/02/19 14:52:17;;;;;;;8.05;2.53;;;;;;;;;;4895901;29;20060;-79
2024/02/19 14:55:14;;;;;;;5.93;2.10;;;;;;;;;;4897364;29;20075;-81
2024/02/19 14:58:12;;;;;;;8.70;1.88;;;;;;;;;;4895082;29;20047;-82
2024/02/19 15:01:00;;;;;;;6.47;2.65;;;;;;;;;;4896814;29;20024;-81
2024/02/19 15:03:48;;;;;;;6.15;2.38;;;;;;;;;;4896954;29;20044;-81
2024/02/19 15:07:02;;;;;;;;;;;;;;;;;;;;;
2024/02/19 15:09:48;;;;;;;5.07;1.80;;;;;;;;;;4897003;29;20044;-83
2024/02/19 15:12:36;;;;;;;6.55;2.38;;;;;;;;;;4897113;29;20056;-80
2024/02/19 15:15:22;;;;;;;6.57;2.00;;;;;;;;;;4907884;29;20804;-81
2024/02/19 15:18:15;;;;;;;6.53;2.30;;;;;;;;;;4893390;29;20115;-83
2024/02/19 15:21:03;;;;;;;4.13;1.75;;;;;;;;;;4893205;29;20737;-81
2024/02/19 15:23:53;;;;;;;6.20;1.95;;;;;;;;;;4896996;29;20463;-83
2024/02/19 15:26:40;;;;;;;8.25;2.50;;;;;;;;;;4903556;29;20349;-82
2024/02/19 15:32:52;;;;;;;4.28;1.65;;;;;;;;;;4904620;29;20071;-81
2024/02/19 15:35:37;;;;;;;4.97;1.88;;;;;;;;;;4888666;29;20040;-82
2024/02/19 15:38:24;;;;;;;6.95;2.47;;;;;;;;;;4895962;29;20020;-82
2024/02/19 15:41:12;;;;;;;4.72;2.30;;;;;;;;;;4896961;29;20036;-80
2024/02/19 15:44:03;;;;;;;7.82;2.67;;;;;;;;;;4895797;29;20059;-83
2024/02/19 15:46:49;;;;;;;7.88;3.35;;;;;;;;;;4885933;29;20064;-83
2024/02/19 15:49:34;;;;;;;8.27;2.20;;;;;;;;;;4895919;29;20127;-84
2024/02/19 15:52:19;;;;;;;8.98;2.60;;;;;;;;;;4893788;29;20024;-84
2024/02/19 15:55:05;;;;;;;8.82;2.85;;;;;;;;;;4896876;29;20064;-85
2024/02/19 15:57:50;;;;;;;3.95;1.60;;;;;;;;;;4895038;29;20451;-84
2024/02/19 16:00:40;;;;;;;6.63;2.20;;;;;;;;;;4881603;29;20102;-85
2024/02/19 16:03:27;;;;;;;3.25;1.70;;;;;;;;;;4896346;29;20020;-84
2024/02/19 16:06:15;;;;;;;6.43;2.00;;;;;;;;;;4909714;29;20032;-85
2024/02/19 16:09:00;;;;;;;7.07;2.38;;;;;;;;;;4905172;29;20577;-85
2024/02/19 16:11:53;;;;;;;4.13;1.73;;;;;;;;;;4896064;29;20098;-84
2024/02/19 16:14:38;;;;;;;6.07;2.00;;;;;;;;;;4894854;29;20513;-84
2024/02/19 16:17:24;;;;;;;4.65;1.90;;;;;;;;;;4907876;29;20035;-84
2024/02/19 16:20:09;;;;;;;6.88;2.67;;;;;;;;;;4895758;29;20035;-83
2024/02/19 16:22:55;;;;;;;7.80;2.22;;;;;;;;;;4895385;29;20059;-84
2024/02/19 16:25:41;;;;;;;8.88;2.53;;;;;;;;;;4893332;29;20038;-84
2024/02/19 16:28:26;;;;;;;6.72;2.08;;;;;;;;;;4895377;29;20040;-85
2024/02/19 16:31:11;;;;;;;6.43;2.03;;;;;;;;;;4892317;29;20045;-84
2024/02/19 16:34:07;;;;;;;7.93;2.35;;;;;;;;;;4891561;29;20036;-84
2024/02/19 16:36:55;;;;;;;11.57;3.25;;;;;;;;;;4895891;29;20042;-82
2024/02/19 16:39:46;;;;;;;5.63;2.58;;;;;;;;;;4895109;29;20040;-82
2024/02/19 16:42:35;;;;;;;8.20;2.58;;;;;;;;;;4895354;29;20032;-82
2024/02/19 16:45:23;;;;;;;7.43;2.42;;;;;;;;;;4895854;29;20068;-81